createdAt,value
2019-01-15T00:01:24.950Z,4.90
2019-01-15T00:03:55.371Z,4.90
2019-01-15T00:06:25.808Z,4.80
2019-01-15T00:08:56.239Z,4.80
2019-01-15T00:11:26.542Z,4.80
2019-01-15T00:13:56.976Z,4.90
2019-01-15T00:16:29.213Z,4.80
2019-01-15T00:18:59.691Z,4.80
2019-01-15T00:21:30.212Z,4.90
2019-01-15T00:24:00.554Z,4.80
2019-01-15T00:26:30.862Z,4.80
2019-01-15T00:29:01.114Z,4.80
2019-01-15T00:31:31.458Z,4.80
2019-01-15T00:34:01.879Z,4.90
2019-01-15T00:36:32.230Z,4.90
2019-01-15T00:39:02.583Z,4.90
2019-01-15T00:41:33.058Z,4.80
2019-01-15T00:44:03.590Z,4.90
2019-01-15T00:46:34.243Z,4.90
2019-01-15T00:49:07.042Z,4.90
2019-01-15T00:51:38.847Z,4.90
2019-01-15T00:54:09.122Z,4.90
2019-01-15T00:56:40.868Z,4.90
2019-01-15T00:59:12.208Z,4.90
2019-01-15T01:01:42.691Z,4.90
2019-01-15T01:04:16.082Z,5.00
2019-01-15T01:06:46.728Z,5.00
2019-01-15T01:09:17.070Z,5.00
2019-01-15T01:11:47.687Z,5.00
2019-01-15T01:14:18.268Z,5.00
2019-01-15T01:16:48.679Z,4.90
2019-01-15T01:19:19.066Z,4.90
2019-01-15T01:21:49.411Z,4.90
2019-01-15T01:24:19.859Z,4.80
2019-01-15T01:26:50.252Z,4.80
2019-01-15T01:29:20.686Z,4.90
2019-01-15T01:31:51.049Z,4.90
2019-01-15T01:34:21.774Z,5.00
2019-01-15T01:36:52.132Z,5.00
2019-01-15T01:39:37.118Z,5.00
2019-01-15T01:42:16.272Z,5.00
2019-01-15T01:45:02.071Z,5.10
2019-01-15T01:47:34.674Z,5.20
2019-01-15T01:50:05.748Z,5.20
2019-01-15T01:52:36.035Z,5.20
2019-01-15T01:55:07.527Z,5.20
2019-01-15T01:57:38.505Z,5.20
2019-01-15T02:00:14.895Z,5.20
2019-01-15T02:02:51.431Z,5.30
2019-01-15T02:05:21.862Z,5.30
2019-01-15T02:07:52.321Z,5.30
2019-01-15T02:10:24.655Z,5.40
2019-01-15T02:12:55.098Z,5.40
2019-01-15T02:15:25.707Z,5.40
2019-01-15T02:17:57.047Z,5.50
2019-01-15T02:20:27.510Z,5.50
2019-01-15T02:22:57.882Z,5.50
2019-01-15T02:25:28.199Z,5.50
2019-01-15T02:27:58.630Z,5.60
2019-01-15T02:30:28.978Z,5.60
2019-01-15T02:33:08.295Z,5.60
2019-01-15T02:35:46.865Z,5.70
2019-01-15T02:38:26.104Z,5.70
2019-01-15T02:40:58.575Z,5.70
2019-01-15T02:43:29.837Z,5.80
2019-01-15T02:46:00.191Z,5.80
2019-01-15T02:48:30.530Z,5.80
2019-01-15T02:51:01.067Z,5.80
2019-01-15T02:53:31.523Z,5.80
2019-01-15T02:56:01.876Z,5.80
2019-01-15T02:58:32.795Z,5.90
2019-01-15T03:01:03.711Z,5.90
2019-01-15T03:03:34.223Z,5.90
2019-01-15T03:06:04.930Z,5.80
2019-01-15T03:08:35.217Z,5.80
2019-01-15T03:11:06.047Z,5.80
2019-01-15T03:13:36.423Z,5.70
2019-01-15T03:16:06.829Z,5.70
2019-01-15T03:18:37.210Z,5.70
2019-01-15T03:21:07.705Z,5.70
2019-01-15T03:23:38.235Z,5.70
2019-01-15T03:26:08.788Z,5.70
2019-01-15T03:28:39.186Z,5.60
2019-01-15T03:31:09.625Z,5.60
2019-01-15T03:33:40.192Z,5.60
2019-01-15T03:36:11.460Z,5.60
2019-01-15T03:38:41.803Z,5.60
2019-01-15T03:41:12.301Z,5.60
2019-01-15T03:43:42.674Z,5.60
2019-01-15T03:46:13.061Z,5.60
2019-01-15T03:48:43.381Z,5.60
2019-01-15T03:51:14.054Z,5.60
2019-01-15T03:53:44.478Z,5.70
2019-01-15T03:56:14.922Z,5.70
2019-01-15T03:58:46.666Z,5.80
2019-01-15T04:01:17.867Z,5.80
2019-01-15T04:03:48.206Z,5.90
2019-01-15T04:06:18.622Z,5.90
2019-01-15T04:08:50.241Z,5.90
2019-01-15T04:11:21.010Z,5.90
2019-01-15T04:13:51.392Z,6.00
2019-01-15T04:16:21.772Z,6.00
2019-01-15T04:18:52.104Z,6.00
2019-01-15T04:21:22.518Z,6.00
2019-01-15T04:23:52.894Z,6.10
2019-01-15T04:26:23.339Z,6.00
2019-01-15T04:28:54.018Z,6.00
2019-01-15T04:31:24.410Z,6.00
2019-01-15T04:33:54.869Z,6.00
2019-01-15T04:36:25.285Z,6.00
2019-01-15T04:38:57.360Z,6.00
2019-01-15T04:41:27.743Z,6.00
2019-01-15T04:43:58.400Z,6.00
2019-01-15T04:46:28.869Z,6.00
2019-01-15T04:48:59.323Z,6.00
2019-01-15T04:51:29.800Z,6.00
2019-01-15T04:54:00.258Z,6.00
2019-01-15T04:56:31.598Z,6.00
2019-01-15T04:59:02.431Z,6.00
2019-01-15T05:01:32.890Z,6.00
2019-01-15T05:04:03.480Z,6.10
2019-01-15T05:06:33.967Z,6.10
2019-01-15T05:09:07.208Z,6.10
2019-01-15T05:11:39.499Z,6.20
2019-01-15T05:14:09.981Z,6.20
2019-01-15T05:16:40.401Z,6.30
2019-01-15T05:19:10.785Z,6.30
2019-01-15T05:21:41.229Z,6.30
2019-01-15T05:24:13.287Z,6.30
2019-01-15T05:26:43.663Z,6.30
2019-01-15T05:29:14.016Z,6.40
2019-01-15T05:31:44.442Z,6.40
2019-01-15T05:34:16.424Z,6.40
2019-01-15T05:36:46.879Z,6.40
2019-01-15T05:39:17.454Z,6.40
2019-01-15T05:41:53.104Z,6.40
2019-01-15T05:44:24.147Z,6.40
2019-01-15T05:46:54.613Z,6.40
2019-01-15T05:49:25.947Z,6.40
2019-01-15T05:52:04.615Z,6.40
2019-01-15T05:54:37.774Z,6.40
2019-01-15T05:57:08.865Z,6.40
2019-01-15T05:59:39.582Z,6.50
2019-01-15T06:02:10.086Z,6.50
2019-01-15T06:04:40.586Z,6.50
2019-01-15T06:07:11.088Z,6.60
2019-01-15T06:09:41.947Z,6.60
2019-01-15T06:12:16.057Z,6.60
2019-01-15T06:14:46.456Z,6.60
2019-01-15T06:17:16.887Z,6.60
2019-01-15T06:19:51.339Z,6.60
2019-01-15T06:22:21.670Z,6.60
2019-01-15T06:24:52.075Z,6.70
2019-01-15T06:27:22.548Z,6.60
2019-01-15T06:29:53.058Z,6.60
2019-01-15T06:32:23.500Z,6.60
2019-01-15T06:34:55.855Z,6.60
2019-01-15T06:37:26.429Z,6.60
2019-01-15T06:39:57.352Z,6.60
2019-01-15T06:42:27.708Z,6.60
2019-01-15T06:44:59.100Z,6.50
2019-01-15T06:47:31.391Z,6.50
2019-01-15T06:50:01.739Z,6.50
2019-01-15T06:52:32.047Z,6.50
2019-01-15T06:55:10.499Z,6.50
2019-01-15T06:57:40.991Z,6.50
2019-01-15T07:00:17.955Z,6.60
2019-01-15T07:02:48.427Z,6.60
2019-01-15T07:05:19.783Z,6.60
2019-01-15T07:07:52.891Z,6.70
2019-01-15T07:10:26.533Z,6.70
2019-01-15T07:12:57.039Z,6.70
2019-01-15T07:15:27.426Z,6.70
2019-01-15T07:17:58.367Z,6.70
2019-01-15T07:20:29.090Z,6.70
2019-01-15T07:22:59.586Z,6.70
2019-01-15T07:25:30.198Z,6.80
2019-01-15T07:28:01.331Z,6.80
2019-01-15T07:30:37.802Z,6.80
2019-01-15T07:33:09.491Z,6.80
2019-01-15T07:35:41.290Z,6.90
2019-01-15T07:38:11.672Z,6.90
2019-01-15T07:40:42.003Z,6.90
2019-01-15T07:43:12.517Z,6.90
2019-01-15T07:45:43.083Z,6.90
2019-01-15T07:48:15.380Z,6.90
2019-01-15T07:50:46.071Z,6.90
2019-01-15T07:53:17.382Z,6.90
2019-01-15T07:55:47.819Z,7.00
2019-01-15T07:58:18.430Z,7.00
2019-01-15T08:00:48.931Z,7.00
2019-01-15T08:03:19.294Z,7.00
2019-01-15T08:05:49.715Z,7.00
2019-01-15T08:08:21.076Z,7.00
2019-01-15T08:10:56.980Z,7.00
2019-01-15T08:13:23.995Z,7.10
2019-01-15T08:15:54.387Z,7.10
2019-01-15T08:18:25.059Z,7.10
2019-01-15T08:20:55.378Z,7.10
2019-01-15T08:23:25.709Z,7.10
2019-01-15T08:25:56.069Z,7.10
2019-01-15T08:28:26.511Z,7.20
2019-01-15T08:30:56.860Z,7.20
2019-01-15T08:33:27.190Z,7.20
2019-01-15T08:35:57.534Z,7.20
2019-01-15T08:38:27.958Z,7.20
2019-01-15T08:41:01.331Z,7.20
2019-01-15T08:43:31.663Z,7.20
2019-01-15T08:46:02.061Z,7.20
2019-01-15T08:48:33.811Z,7.30
2019-01-15T08:51:05.764Z,7.30
2019-01-15T08:53:36.637Z,7.30
2019-01-15T08:56:07.623Z,7.30
2019-01-15T08:58:38.001Z,7.40
2019-01-15T09:01:08.303Z,7.40
2019-01-15T09:03:38.688Z,7.40
2019-01-15T09:06:09.184Z,7.40
2019-01-15T09:08:41.318Z,7.50
2019-01-15T09:11:11.943Z,7.50
2019-01-15T09:13:43.270Z,7.50
2019-01-15T09:16:13.676Z,7.50
2019-01-15T09:18:44.118Z,7.60
2019-01-15T09:21:16.544Z,7.60
2019-01-15T09:23:46.956Z,7.60
2019-01-15T09:26:17.311Z,7.60
2019-01-15T09:28:47.874Z,7.60
2019-01-15T09:31:18.310Z,7.60
2019-01-15T09:33:48.742Z,7.50
2019-01-15T09:36:19.283Z,7.60
2019-01-15T09:38:49.698Z,7.60
2019-01-15T09:41:20.080Z,7.70
2019-01-15T09:43:50.504Z,7.70
2019-01-15T09:46:20.983Z,7.70
2019-01-15T09:48:51.854Z,7.70
2019-01-15T09:51:22.343Z,7.80
2019-01-15T09:53:52.730Z,7.80
2019-01-15T09:56:23.060Z,7.80
2019-01-15T09:58:53.412Z,7.90
2019-01-15T10:01:29.660Z,7.90
2019-01-15T10:04:05.423Z,7.80
2019-01-15T10:06:37.826Z,7.80
2019-01-15T10:09:09.431Z,7.90
2019-01-15T10:11:40.585Z,7.90
2019-01-15T10:14:11.294Z,7.90
2019-01-15T10:16:41.651Z,7.90
2019-01-15T10:19:12.111Z,8.00
2019-01-15T10:21:42.923Z,8.00
2019-01-15T10:24:13.380Z,8.10
2019-01-15T10:26:43.836Z,8.10
2019-01-15T10:29:14.263Z,8.00
2019-01-15T10:32:33.595Z,8.10
2019-01-15T10:35:19.039Z,8.10
2019-01-15T10:37:49.295Z,8.10
2019-01-15T10:40:19.747Z,8.10
2019-01-15T10:42:50.165Z,8.20
2019-01-15T10:45:21.286Z,8.20
2019-01-15T10:47:51.643Z,8.20
2019-01-15T10:50:21.983Z,8.30
2019-01-15T10:52:53.336Z,8.30
2019-01-15T10:55:23.675Z,8.40
2019-01-15T10:57:54.937Z,8.40
2019-01-15T11:00:25.274Z,8.40
2019-01-15T11:02:55.706Z,8.40
2019-01-15T11:05:27.067Z,8.40
2019-01-15T11:07:57.442Z,8.50
2019-01-15T11:10:28.022Z,8.70
2019-01-15T11:12:59.067Z,8.90
2019-01-15T11:15:30.002Z,9.00
2019-01-15T11:18:00.551Z,9.30
2019-01-15T11:20:31.094Z,9.50
2019-01-15T11:23:01.458Z,9.60
2019-01-15T11:25:32.169Z,9.60
2019-01-15T11:28:02.552Z,9.60
2019-01-15T11:30:32.999Z,9.40
2019-01-15T11:33:03.338Z,9.40
2019-01-15T11:35:34.151Z,9.40
2019-01-15T11:38:04.690Z,9.50
2019-01-15T11:40:35.086Z,9.90
2019-01-15T11:43:05.466Z,10.70
2019-01-15T11:45:37.431Z,11.30
2019-01-15T11:48:08.026Z,11.30
2019-01-15T11:50:38.413Z,11.10
2019-01-15T11:53:09.887Z,11.10
2019-01-15T11:55:40.247Z,10.80
2019-01-15T11:58:10.843Z,10.50
2019-01-15T12:00:49.161Z,10.20
2019-01-15T12:03:37.739Z,10.00
2019-01-15T12:06:42.637Z,10.00
2019-01-15T12:09:22.767Z,9.90
2019-01-15T12:12:30.370Z,9.90
2019-01-15T12:15:15.060Z,9.90
2019-01-15T12:17:59.516Z,10.00
2019-01-15T12:21:04.366Z,9.80
2019-01-15T12:24:08.679Z,10.00
2019-01-15T12:26:50.219Z,10.40
2019-01-15T12:29:42.508Z,11.10
2019-01-15T12:32:47.131Z,10.90
2019-01-15T12:35:35.692Z,10.90
2019-01-15T12:38:28.439Z,11.40
2019-01-15T12:41:16.927Z,12.00
2019-01-15T12:44:05.476Z,11.50
2019-01-15T12:46:58.382Z,10.90
2019-01-15T12:49:46.614Z,10.80
2019-01-15T12:52:35.053Z,10.70
2019-01-15T12:55:33.138Z,10.50
2019-01-15T12:58:18.703Z,10.30
2019-01-15T13:01:05.537Z,10.10
2019-01-15T13:03:57.169Z,10.00
2019-01-15T13:06:45.647Z,9.90
2019-01-15T13:09:24.714Z,9.90
2019-01-15T13:12:20.040Z,9.80
2019-01-15T13:15:02.110Z,9.70
2019-01-15T13:17:59.987Z,9.70
2019-01-15T13:21:06.404Z,9.60
2019-01-15T13:24:04.923Z,9.60
2019-01-15T13:26:53.771Z,9.60
2019-01-15T13:29:39.743Z,9.50
2019-01-15T13:32:23.679Z,9.40
2019-01-15T13:35:05.691Z,9.50
2019-01-15T13:37:54.235Z,9.40
2019-01-15T13:40:46.770Z,9.40
2019-01-15T13:43:41.912Z,9.40
2019-01-15T13:46:32.763Z,9.50
2019-01-15T13:49:15.072Z,9.40
2019-01-15T13:51:57.501Z,9.40
2019-01-15T13:54:55.801Z,9.40
2019-01-15T13:57:48.596Z,9.40
2019-01-15T14:00:39.289Z,9.70
2019-01-15T14:03:27.339Z,9.80
2019-01-15T14:06:15.470Z,9.80
2019-01-15T14:09:05.724Z,9.60
2019-01-15T14:12:10.394Z,9.50
2019-01-15T14:15:04.640Z,9.40
2019-01-15T14:17:56.949Z,9.40
2019-01-15T14:20:52.814Z,9.50
2019-01-15T14:23:52.475Z,9.30
2019-01-15T14:26:39.586Z,9.30
2019-01-15T14:29:38.032Z,9.20
2019-01-15T14:32:19.039Z,9.20
2019-01-15T14:35:10.695Z,9.10
2019-01-15T14:37:59.153Z,9.10
2019-01-15T14:40:48.503Z,9.10
2019-01-15T14:43:31.395Z,9.10
2019-01-15T14:46:30.081Z,9.00
2019-01-15T14:49:28.749Z,9.10
2019-01-15T14:52:17.123Z,9.10
2019-01-15T14:55:05.403Z,9.00
2019-01-15T14:57:46.915Z,9.00
2019-01-15T15:00:46.610Z,8.90
2019-01-15T15:03:39.134Z,8.90
2019-01-15T15:06:18.935Z,8.80
2019-01-15T15:09:06.998Z,8.80
2019-01-15T15:11:52.218Z,8.80
2019-01-15T15:14:40.685Z,8.80
2019-01-15T15:17:26.456Z,8.80
2019-01-15T15:20:18.688Z,8.80
2019-01-15T15:23:00.382Z,8.80
2019-01-15T15:25:50.921Z,8.80
2019-01-15T15:28:44.199Z,8.80
2019-01-15T15:31:32.929Z,8.80
2019-01-15T15:34:31.899Z,8.80
2019-01-15T15:37:12.053Z,8.80
2019-01-15T15:40:00.246Z,8.80
2019-01-15T15:42:50.103Z,8.80
2019-01-15T15:45:38.327Z,8.80
2019-01-15T15:48:46.099Z,8.70
2019-01-15T15:51:40.255Z,8.80
2019-01-15T15:54:32.651Z,8.80
2019-01-15T15:57:21.681Z,8.80
2019-01-15T16:00:13.024Z,8.80
2019-01-15T16:03:01.696Z,8.70
2019-01-15T16:05:46.441Z,8.70
2019-01-15T16:08:40.344Z,8.70
2019-01-15T16:11:28.501Z,8.70
2019-01-15T16:14:39.797Z,8.70
2019-01-15T16:17:36.521Z,8.70
2019-01-15T16:20:34.808Z,8.70
2019-01-15T16:23:20.987Z,8.70
2019-01-15T16:26:19.340Z,8.70
2019-01-15T16:29:14.957Z,8.70
2019-01-15T16:32:06.103Z,8.70
2019-01-15T16:34:52.154Z,8.70
2019-01-15T16:37:47.303Z,8.70
2019-01-15T16:40:35.636Z,8.70
2019-01-15T16:43:24.363Z,8.70
2019-01-15T16:46:26.470Z,8.70
2019-01-15T16:49:18.455Z,8.60
2019-01-15T16:52:07.358Z,8.70
2019-01-15T16:55:03.794Z,8.70
2019-01-15T16:57:52.035Z,8.70
2019-01-15T17:00:40.923Z,8.60
2019-01-15T17:03:22.181Z,8.60
2019-01-15T17:06:17.818Z,8.60
2019-01-15T17:09:05.970Z,8.60
2019-01-15T17:11:55.320Z,8.60
2019-01-15T17:14:43.831Z,8.60
2019-01-15T17:17:32.016Z,8.60
2019-01-15T17:20:33.779Z,8.60
2019-01-15T17:23:22.435Z,8.60
2019-01-15T17:26:18.833Z,8.60
2019-01-15T17:29:11.145Z,8.60
2019-01-15T17:31:55.539Z,8.60
2019-01-15T17:34:46.611Z,8.60
2019-01-15T17:37:39.179Z,8.60
2019-01-15T17:40:29.064Z,8.60
2019-01-15T17:43:21.544Z,8.60
2019-01-15T17:46:04.589Z,8.60
2019-01-15T17:49:00.111Z,8.50
2019-01-15T17:51:45.268Z,8.60
2019-01-15T17:54:33.622Z,8.60
2019-01-15T17:57:38.359Z,8.60
2019-01-15T18:00:28.166Z,8.60
2019-01-15T18:03:18.518Z,8.60
2019-01-15T18:06:08.011Z,8.50
2019-01-15T18:09:11.587Z,8.50
2019-01-15T18:12:13.393Z,8.50
2019-01-15T18:15:01.602Z,8.50
2019-01-15T18:18:03.281Z,8.50
2019-01-15T18:20:58.893Z,8.50
2019-01-15T18:23:52.014Z,8.50
2019-01-15T18:27:01.068Z,8.50
2019-01-15T18:29:48.427Z,8.50
2019-01-15T18:32:43.993Z,8.50
2019-01-15T18:35:39.634Z,8.50
2019-01-15T18:38:24.185Z,8.50
2019-01-15T18:41:14.462Z,8.50
2019-01-15T18:44:15.892Z,8.50
2019-01-15T18:47:05.337Z,8.50
2019-01-15T18:50:07.189Z,8.50
2019-01-15T18:52:47.620Z,8.50
2019-01-15T18:55:33.314Z,8.50
2019-01-15T18:58:22.942Z,8.50
2019-01-15T19:01:11.152Z,8.50
2019-01-15T19:03:52.168Z,8.50
2019-01-15T19:06:37.046Z,8.50
2019-01-15T19:09:27.628Z,8.50
2019-01-15T19:12:15.763Z,8.50
2019-01-15T19:15:04.081Z,8.50
2019-01-15T19:17:48.696Z,8.50
2019-01-15T19:20:30.416Z,8.50
2019-01-15T19:23:19.796Z,8.50
2019-01-15T19:26:07.584Z,8.50
2019-01-15T19:28:56.715Z,8.50
2019-01-15T19:32:01.890Z,8.50
2019-01-15T19:35:00.566Z,8.50
2019-01-15T19:37:45.647Z,8.50
2019-01-15T19:40:28.411Z,8.50
2019-01-15T19:43:14.084Z,8.50
2019-01-15T19:46:02.556Z,8.50
2019-01-15T19:48:55.612Z,8.50
2019-01-15T19:51:48.747Z,8.50
2019-01-15T19:54:36.833Z,8.50
2019-01-15T19:57:14.595Z,8.50
2019-01-15T20:00:07.087Z,8.50
2019-01-15T20:02:49.438Z,8.50
2019-01-15T20:05:41.700Z,8.50
2019-01-15T20:08:32.212Z,8.50
2019-01-15T20:11:20.336Z,8.50
2019-01-15T20:14:15.795Z,8.50
2019-01-15T20:17:18.012Z,8.50
2019-01-15T20:20:01.052Z,8.50
2019-01-15T20:22:59.824Z,8.50
2019-01-15T20:25:55.381Z,8.40
2019-01-15T20:28:45.342Z,8.40
2019-01-15T20:31:31.165Z,8.40
2019-01-15T20:34:13.535Z,8.40
2019-01-15T20:37:21.456Z,8.40
2019-01-15T20:40:09.560Z,8.40
2019-01-15T20:43:11.056Z,8.40
2019-01-15T20:45:59.858Z,8.40
2019-01-15T20:48:58.176Z,8.40
2019-01-15T20:51:52.330Z,8.40
2019-01-15T20:54:38.024Z,8.40
2019-01-15T20:57:39.638Z,8.40
2019-01-15T21:00:30.894Z,8.40
2019-01-15T21:03:21.651Z,8.40
2019-01-15T21:06:09.388Z,8.40
2019-01-15T21:08:57.823Z,8.40
2019-01-15T21:11:46.286Z,8.40
2019-01-15T21:14:28.638Z,8.50
2019-01-15T21:17:24.279Z,8.50
2019-01-15T21:20:09.640Z,8.40
2019-01-15T21:22:58.059Z,8.50
2019-01-15T21:25:59.575Z,8.40
2019-01-15T21:28:50.523Z,8.40
2019-01-15T21:31:32.328Z,8.50
2019-01-15T21:34:13.407Z,8.40
2019-01-15T21:37:01.754Z,8.40
2019-01-15T21:39:48.026Z,8.40
2019-01-15T21:42:36.398Z,8.40
2019-01-15T21:45:31.079Z,8.30
2019-01-15T21:48:24.318Z,8.40
2019-01-15T21:51:13.213Z,8.30
2019-01-15T21:54:19.551Z,8.30
2019-01-15T21:57:03.780Z,8.30
2019-01-15T21:59:52.913Z,8.20
2019-01-15T22:02:36.370Z,8.20
2019-01-15T22:05:29.384Z,8.20
2019-01-15T22:08:24.848Z,8.20
2019-01-15T22:11:23.666Z,8.20
2019-01-15T22:14:15.836Z,8.20
2019-01-15T22:17:08.366Z,8.10
2019-01-15T22:20:10.285Z,8.10
2019-01-15T22:22:59.451Z,8.10
2019-01-15T22:25:52.247Z,8.10
2019-01-15T22:28:52.851Z,8.10
2019-01-15T22:31:56.271Z,8.20
2019-01-15T22:34:50.276Z,8.20
2019-01-15T22:37:36.094Z,8.20
2019-01-15T22:40:35.859Z,8.20
2019-01-15T22:43:24.186Z,8.20
2019-01-15T22:46:18.219Z,8.30
2019-01-15T22:49:03.643Z,8.30
2019-01-15T22:51:59.375Z,8.30
2019-01-15T22:55:03.838Z,8.30
2019-01-15T22:58:03.346Z,8.40
2019-01-15T23:01:03.460Z,8.40
2019-01-15T23:03:58.983Z,8.40
2019-01-15T23:06:47.118Z,8.40
2019-01-15T23:09:54.955Z,8.40
2019-01-15T23:12:44.127Z,8.40
2019-01-15T23:15:21.983Z,8.40
2019-01-15T23:18:02.390Z,8.40
2019-01-15T23:20:59.216Z,8.50
2019-01-15T23:23:47.411Z,8.50
2019-01-15T23:26:31.188Z,8.50
2019-01-15T23:29:19.708Z,8.50
2019-01-15T23:32:09.228Z,8.50
2019-01-15T23:35:02.047Z,8.50
2019-01-15T23:37:59.139Z,8.50
2019-01-15T23:40:40.438Z,8.50
2019-01-15T23:43:23.759Z,8.50
2019-01-15T23:46:16.137Z,8.50
2019-01-15T23:49:04.564Z,8.50
2019-01-15T23:51:46.971Z,8.50
2019-01-15T23:55:08.999Z,8.50
2019-01-15T23:57:53.522Z,8.50
